createdAt,value
2017-05-11T00:00:38.775Z,66.33
2017-05-11T00:01:19.368Z,66.24
2017-05-11T00:01:59.953Z,66.33
2017-05-11T00:02:40.575Z,66.33
2017-05-11T00:03:21.159Z,66.24
2017-05-11T00:04:01.737Z,66.53
2017-05-11T00:04:42.310Z,66.24
2017-05-11T00:05:22.880Z,66.14
2017-05-11T00:06:03.531Z,66.33
2017-05-11T00:06:44.114Z,66.24
2017-05-11T00:07:24.715Z,66.53
2017-05-11T00:08:05.296Z,66.33
2017-05-11T00:08:45.875Z,66.33
2017-05-11T00:09:26.482Z,66.24
2017-05-11T00:10:07.076Z,66.24
2017-05-11T00:10:47.652Z,66.24
2017-05-11T00:11:28.245Z,66.14
2017-05-11T00:12:08.833Z,66.62
2017-05-11T00:12:49.413Z,66.81
2017-05-11T00:13:30.046Z,66.62
2017-05-11T00:14:10.613Z,66.53
2017-05-11T00:14:51.201Z,66.72
2017-05-11T00:15:31.831Z,66.62
2017-05-11T00:16:12.440Z,66.53
2017-05-11T00:16:53.062Z,66.91
2017-05-11T00:17:33.638Z,66.91
2017-05-11T00:18:14.238Z,66.91
2017-05-11T00:18:54.823Z,66.24
2017-05-11T00:19:35.423Z,66.62
2017-05-11T00:20:16.022Z,66.81
2017-05-11T00:20:56.603Z,66.53
2017-05-11T00:21:37.196Z,66.81
2017-05-11T00:22:17.787Z,66.72
2017-05-11T00:22:58.374Z,66.72
2017-05-11T00:23:39.043Z,66.91
2017-05-11T00:24:19.611Z,66.72
2017-05-11T00:25:00.659Z,66.81
2017-05-11T00:25:41.451Z,67.1
2017-05-11T00:26:22.051Z,66.91
2017-05-11T00:27:02.623Z,67.19
2017-05-11T00:27:43.230Z,67.19
2017-05-11T00:28:23.867Z,67
2017-05-11T00:29:04.449Z,66.62
2017-05-11T00:29:45.038Z,66.72
2017-05-11T00:30:25.615Z,66.05
2017-05-11T00:31:06.178Z,66.33
2017-05-11T00:31:46.758Z,66.14
2017-05-11T00:32:27.330Z,66.11
2017-05-11T00:33:07.898Z,66.2
2017-05-11T00:33:48.490Z,66.33
2017-05-11T00:34:29.048Z,66.3
2017-05-11T00:35:13.485Z,66.62
2017-05-11T00:35:54.069Z,66.81
2017-05-11T00:36:34.681Z,66.53
2017-05-11T00:37:15.274Z,66.53
2017-05-11T00:37:55.885Z,66.49
2017-05-11T00:38:36.487Z,66.3
2017-05-11T00:39:17.052Z,66.78
2017-05-11T00:39:57.640Z,66.33
2017-05-11T00:40:38.222Z,66.33
2017-05-11T00:41:18.793Z,66.3
2017-05-11T00:42:00.373Z,66.33
2017-05-11T00:42:40.982Z,66.33
2017-05-11T00:43:21.552Z,66.11
2017-05-11T00:44:02.152Z,66.53
2017-05-11T00:44:42.770Z,66.11
2017-05-11T00:45:23.360Z,66.24
2017-05-11T00:46:03.974Z,66.43
2017-05-11T00:46:44.549Z,66.53
2017-05-11T00:47:25.136Z,66.59
2017-05-11T00:48:05.729Z,66.68
2017-05-11T00:48:46.312Z,66.53
2017-05-11T00:49:26.892Z,66.14
2017-05-11T00:50:07.479Z,66.14
2017-05-11T00:50:48.105Z,66.24
2017-05-11T00:51:28.682Z,66.72
2017-05-11T00:52:09.271Z,66.78
2017-05-11T00:52:49.870Z,66.91
2017-05-11T00:53:30.470Z,66.68
2017-05-11T00:54:11.063Z,66.72
2017-05-11T00:54:51.634Z,66.78
2017-05-11T00:55:32.240Z,66.59
2017-05-11T00:56:12.827Z,66.97
2017-05-11T00:56:53.403Z,66.59
2017-05-11T00:57:33.996Z,66.59
2017-05-11T00:58:14.583Z,66.59
2017-05-11T00:58:55.179Z,66.91
2017-05-11T00:59:35.810Z,66.87
2017-05-11T01:00:16.407Z,66.87
2017-05-11T01:00:56.968Z,66.78
2017-05-11T01:01:37.569Z,66.68
2017-05-11T01:02:18.204Z,66.68
2017-05-11T01:02:58.812Z,66.87
2017-05-11T01:03:39.402Z,66.78
2017-05-11T01:04:19.999Z,67.07
2017-05-11T01:05:00.621Z,66.87
2017-05-11T01:05:41.219Z,66.87
2017-05-11T01:06:21.860Z,66.87
2017-05-11T01:07:02.456Z,66.78
2017-05-11T01:07:43.071Z,66.59
2017-05-11T01:08:23.663Z,66.78
2017-05-11T01:09:04.230Z,66.87
2017-05-11T01:09:44.806Z,66.49
2017-05-11T01:10:25.404Z,66.49
2017-05-11T01:11:06.012Z,66.97
2017-05-11T01:11:46.578Z,66.49
2017-05-11T01:12:27.153Z,66.59
2017-05-11T01:13:07.718Z,66.68
2017-05-11T01:13:48.293Z,66.68
2017-05-11T01:14:28.877Z,66.97
2017-05-11T01:15:09.459Z,66.87
2017-05-11T01:15:50.067Z,66.68
2017-05-11T01:16:30.650Z,66.68
2017-05-11T01:17:11.290Z,66.39
2017-05-11T01:17:51.872Z,66.87
2017-05-11T01:18:32.453Z,67.07
2017-05-11T01:19:13.051Z,66.78
2017-05-11T01:19:53.626Z,67.25
2017-05-11T01:20:34.216Z,67.25
2017-05-11T01:21:14.794Z,67.35
2017-05-11T01:21:55.386Z,67.25
2017-05-11T01:22:35.990Z,67.16
2017-05-11T01:23:16.561Z,67.07
2017-05-11T01:23:57.130Z,67.44
2017-05-11T01:24:37.741Z,67.44
2017-05-11T01:25:18.317Z,67.44
2017-05-11T01:25:58.905Z,67.16
2017-05-11T01:26:39.594Z,67.07
2017-05-11T01:27:20.226Z,67.73
2017-05-11T01:28:00.888Z,67.54
2017-05-11T01:28:41.439Z,67.82
2017-05-11T01:29:22.021Z,67.73
2017-05-11T01:30:02.618Z,67.73
2017-05-11T01:30:43.200Z,67.92
2017-05-11T01:31:23.795Z,67.63
2017-05-11T01:32:04.394Z,67.63
2017-05-11T01:32:45.109Z,67.92
2017-05-11T01:33:25.690Z,67.63
2017-05-11T01:34:06.312Z,67.63
2017-05-11T01:34:46.878Z,67.63
2017-05-11T01:35:27.477Z,67.82
2017-05-11T01:36:08.073Z,67.82
2017-05-11T01:36:48.658Z,68.3
2017-05-11T01:37:29.263Z,67.82
2017-05-11T01:38:09.832Z,68.11
2017-05-11T01:38:50.419Z,68.49
2017-05-11T01:39:31.010Z,68.59
2017-05-11T01:40:11.653Z,68.59
2017-05-11T01:40:52.241Z,68.11
2017-05-11T01:41:32.859Z,68.59
2017-05-11T01:42:13.444Z,68.68
2017-05-11T01:42:54.056Z,68.49
2017-05-11T01:43:34.650Z,68.59
2017-05-11T01:44:15.254Z,68.68
2017-05-11T01:44:55.840Z,68.59
2017-05-11T01:45:36.471Z,68.59
2017-05-11T01:46:17.027Z,68.21
2017-05-11T01:46:57.602Z,68.4
2017-05-11T01:47:38.195Z,68.68
2017-05-11T01:48:18.851Z,68.68
2017-05-11T01:48:59.444Z,68.68
2017-05-11T01:49:40.034Z,68.68
2017-05-11T01:50:20.605Z,68.74
2017-05-11T01:51:01.169Z,68.77
2017-05-11T01:51:41.776Z,68.4
2017-05-11T01:52:22.350Z,68.77
2017-05-11T01:53:02.923Z,68.65
2017-05-11T01:53:43.506Z,69.02
2017-05-11T01:54:24.185Z,68.84
2017-05-11T01:55:04.779Z,69.15
2017-05-11T01:55:45.359Z,69.44
2017-05-11T01:56:25.941Z,69.35
2017-05-11T01:57:06.537Z,69.35
2017-05-11T01:57:47.129Z,69.06
2017-05-11T01:58:27.716Z,69.44
2017-05-11T01:59:08.292Z,68.68
2017-05-11T01:59:48.906Z,69.21
2017-05-11T02:00:29.516Z,69.31
2017-05-11T02:01:10.079Z,69.5
2017-05-11T02:01:50.659Z,68.87
2017-05-11T02:02:31.291Z,69.35
2017-05-11T02:03:11.842Z,69.44
2017-05-11T02:03:52.461Z,69.15
2017-05-11T02:04:33.062Z,68.96
2017-05-11T02:05:13.643Z,69.25
2017-05-11T02:05:54.221Z,68.93
2017-05-11T02:06:34.801Z,69.15
2017-05-11T02:07:15.420Z,69.31
2017-05-11T02:07:56.031Z,69.31
2017-05-11T02:08:36.622Z,69.31
2017-05-11T02:09:17.213Z,69.41
2017-05-11T02:09:57.784Z,69.41
2017-05-11T02:10:38.378Z,69.31
2017-05-11T02:11:19.026Z,69.21
2017-05-11T02:11:59.611Z,69.12
2017-05-11T02:12:40.209Z,69.31
2017-05-11T02:13:20.788Z,69.21
2017-05-11T02:14:01.417Z,69.5
2017-05-11T02:14:41.990Z,69.5
2017-05-11T02:15:22.586Z,69.31
2017-05-11T02:16:03.220Z,70.26
2017-05-11T02:16:43.788Z,69.5
2017-05-11T02:17:24.374Z,70.36
2017-05-11T02:18:04.965Z,69.5
2017-05-11T02:18:45.545Z,69.5
2017-05-11T02:19:26.155Z,69.88
2017-05-11T02:20:06.749Z,69.31
2017-05-11T02:20:47.322Z,69.31
2017-05-11T02:21:27.914Z,69.21
2017-05-11T02:22:08.504Z,70.07
2017-05-11T02:22:49.093Z,70.26
2017-05-11T02:23:29.705Z,69.31
2017-05-11T02:24:10.359Z,69.6
2017-05-11T02:24:50.978Z,69.5
2017-05-11T02:25:31.591Z,69.79
2017-05-11T02:26:12.290Z,70.26
2017-05-11T02:26:52.879Z,69.79
2017-05-11T02:27:33.463Z,69.6
2017-05-11T02:28:14.052Z,69.31
2017-05-11T02:28:54.639Z,69.31
2017-05-11T02:29:35.246Z,69.5
2017-05-11T02:30:15.833Z,69.41
2017-05-11T02:30:56.444Z,69.41
2017-05-11T02:31:37.059Z,69.5
2017-05-11T02:32:17.657Z,69.21
2017-05-11T02:32:58.238Z,70.26
2017-05-11T02:33:38.815Z,69.88
2017-05-11T02:34:19.446Z,70.26
2017-05-11T02:35:00.044Z,69.41
2017-05-11T02:35:40.625Z,69.21
2017-05-11T02:36:21.200Z,69.5
2017-05-11T02:37:01.785Z,69.79
2017-05-11T02:37:42.375Z,69.6
2017-05-11T02:38:22.962Z,69.6
2017-05-11T02:39:03.578Z,69.5
2017-05-11T02:39:44.176Z,69.6
2017-05-11T02:40:24.786Z,69.6
2017-05-11T02:41:05.396Z,69.6
2017-05-11T02:41:45.985Z,69.5
2017-05-11T02:42:26.573Z,69.6
2017-05-11T02:43:07.209Z,69.79
2017-05-11T02:43:47.811Z,69.6
2017-05-11T02:44:28.405Z,69.79
2017-05-11T02:45:09.016Z,69.69
2017-05-11T02:45:49.617Z,69.5
2017-05-11T02:46:30.196Z,69.79
2017-05-11T02:47:10.813Z,69.79
2017-05-11T02:47:51.406Z,69.69
2017-05-11T02:48:32.013Z,69.21
2017-05-11T02:49:12.625Z,69.5
2017-05-11T02:49:53.216Z,69.31
2017-05-11T02:50:33.864Z,69.21
2017-05-11T02:51:14.435Z,69.5
2017-05-11T02:51:55.045Z,69.12
2017-05-11T02:52:35.644Z,69.21
2017-05-11T02:53:16.265Z,69.69
2017-05-11T02:53:56.854Z,69.6
2017-05-11T02:54:37.449Z,69.5
2017-05-11T02:55:18.055Z,69.31
2017-05-11T02:55:58.711Z,69.5
2017-05-11T02:56:39.290Z,69.31
2017-05-11T02:57:19.894Z,69.31
2017-05-11T02:58:00.529Z,69.5
2017-05-11T02:58:41.155Z,69.41
2017-05-11T02:59:21.776Z,69.41
2017-05-11T03:00:02.413Z,69.31
2017-05-11T03:00:43.104Z,70.26
2017-05-11T03:01:23.818Z,69.88
2017-05-11T03:02:04.426Z,69.98
2017-05-11T03:02:45.026Z,70.54
2017-05-11T03:03:25.641Z,70.74
2017-05-11T03:04:06.278Z,70.54
2017-05-11T03:04:46.862Z,70.54
2017-05-11T03:05:27.498Z,70.54
2017-05-11T03:06:08.129Z,70.36
2017-05-11T03:06:48.720Z,69.98
2017-05-11T03:07:29.311Z,70.07
2017-05-11T03:08:09.906Z,70.54
2017-05-11T03:08:50.517Z,70.64
2017-05-11T03:09:31.117Z,70.64
2017-05-11T03:10:11.720Z,70.74
2017-05-11T03:10:52.315Z,70.74
2017-05-11T03:11:32.894Z,70.64
2017-05-11T03:12:13.482Z,70.93
2017-05-11T03:12:54.075Z,70.54
2017-05-11T03:13:34.674Z,70.54
2017-05-11T03:14:15.251Z,70.54
2017-05-11T03:14:55.834Z,70.64
2017-05-11T03:15:36.420Z,70.64
2017-05-11T03:16:17.025Z,70.45
2017-05-11T03:16:57.675Z,70.64
2017-05-11T03:17:38.257Z,70.64
2017-05-11T03:18:18.851Z,69.98
2017-05-11T03:18:59.516Z,69.79
2017-05-11T03:19:40.157Z,70.17
2017-05-11T03:20:20.835Z,69.88
2017-05-11T03:21:01.396Z,69.88
2017-05-11T03:21:41.990Z,70.07
2017-05-11T03:22:22.604Z,70.64
2017-05-11T03:23:03.201Z,70.74
2017-05-11T03:23:43.813Z,70.54
2017-05-11T03:24:24.440Z,70.45
2017-05-11T03:25:05.090Z,70.36
2017-05-11T03:25:45.687Z,70.54
2017-05-11T03:26:26.287Z,70.74
2017-05-11T03:27:06.880Z,70.07
2017-05-11T03:27:47.511Z,70.36
2017-05-11T03:28:28.069Z,70.54
2017-05-11T03:29:08.673Z,70.54
2017-05-11T03:29:49.283Z,70.54
2017-05-11T03:30:29.888Z,70.07
2017-05-11T03:31:10.516Z,70.17
2017-05-11T03:31:51.116Z,70.26
2017-05-11T03:34:04.247Z,70.17
2017-05-11T03:34:44.841Z,70.74
2017-05-11T03:35:25.428Z,70.64
2017-05-11T03:36:06.010Z,70.74
2017-05-11T03:36:46.677Z,70.64
2017-05-11T03:37:27.255Z,70.54
2017-05-11T03:38:07.841Z,70.93
2017-05-11T03:38:48.407Z,70.74
2017-05-11T03:39:29.023Z,70.64
2017-05-11T03:40:09.618Z,70.74
2017-05-11T03:40:50.206Z,70.93
2017-05-11T03:41:30.834Z,70.93
2017-05-11T03:42:11.414Z,70.93
2017-05-11T03:42:51.984Z,70.93
2017-05-11T03:43:32.579Z,70.45
2017-05-11T03:44:13.149Z,70.45
2017-05-11T03:44:53.731Z,70.64
2017-05-11T03:45:34.336Z,70.26
2017-05-11T03:46:14.922Z,70.64
2017-05-11T03:46:55.502Z,70.64
2017-05-11T03:47:36.087Z,70.74
2017-05-11T03:48:16.649Z,70.74
2017-05-11T03:48:57.218Z,70.64
2017-05-11T03:49:37.841Z,70.64
2017-05-11T03:50:18.410Z,70.45
2017-05-11T03:50:59.022Z,70.93
2017-05-11T03:51:39.606Z,70.74
2017-05-11T03:52:20.194Z,70.83
2017-05-11T03:53:00.760Z,70.74
2017-05-11T03:53:41.364Z,70.83
2017-05-11T03:54:21.937Z,70.83
2017-05-11T03:55:02.530Z,70.83
2017-05-11T03:55:43.108Z,70.74
2017-05-11T03:56:23.684Z,70.93
2017-05-11T03:57:04.340Z,70.93
2017-05-11T03:57:44.942Z,70.93
2017-05-11T03:58:25.528Z,70.45
2017-05-11T03:59:06.146Z,70.83
2017-05-11T03:59:46.728Z,70.45
2017-05-11T04:00:27.294Z,70.54
2017-05-11T04:01:07.879Z,70.54
2017-05-11T04:01:48.495Z,70.83
2017-05-11T04:02:29.101Z,70.54
2017-05-11T04:03:09.694Z,70.54
2017-05-11T04:03:50.244Z,70.54
2017-05-11T04:04:30.856Z,70.54
2017-05-11T04:05:11.451Z,70.54
2017-05-11T04:05:52.022Z,70.45
2017-05-11T04:06:32.624Z,70.93
2017-05-11T04:07:13.212Z,70.64
2017-05-11T04:07:53.789Z,70.83
2017-05-11T04:08:34.372Z,70.83
2017-05-11T04:09:14.962Z,70.74
2017-05-11T04:09:55.679Z,70.83
2017-05-11T04:10:36.176Z,70.54
2017-05-11T04:11:16.793Z,70.74
2017-05-11T04:11:57.372Z,70.83
2017-05-11T04:12:37.951Z,70.36
2017-05-11T04:13:18.579Z,70.36
2017-05-11T04:13:59.202Z,70.45
2017-05-11T04:14:39.777Z,70.54
2017-05-11T04:15:20.360Z,70.64
2017-05-11T04:16:00.924Z,70.74
2017-05-11T04:16:41.507Z,70.54
2017-05-11T04:17:22.085Z,70.36
2017-05-11T04:18:02.708Z,70.54
2017-05-11T04:18:43.295Z,70.54
2017-05-11T04:19:23.897Z,70.64
2017-05-11T04:20:04.478Z,70.45
2017-05-11T04:20:45.069Z,70.83
2017-05-11T04:21:25.627Z,70.93
2017-05-11T04:22:06.254Z,71.12
2017-05-11T04:22:46.831Z,71.12
2017-05-11T04:23:27.407Z,71.22
2017-05-11T04:24:08.125Z,71.22
2017-05-11T04:24:48.696Z,71.22
2017-05-11T04:25:29.288Z,71.12
2017-05-11T04:26:09.870Z,71.02
2017-05-11T04:26:50.457Z,70.93
2017-05-11T04:27:31.032Z,70.74
2017-05-11T04:28:11.634Z,70.36
2017-05-11T04:28:52.273Z,70.54
2017-05-11T04:29:32.868Z,70.58
2017-05-11T04:30:13.453Z,70.07
2017-05-11T04:30:54.047Z,70.3
2017-05-11T04:31:34.621Z,69.92
2017-05-11T04:32:15.185Z,70.2
2017-05-11T04:32:55.766Z,70.2
2017-05-11T04:33:36.359Z,69.98
2017-05-11T04:34:16.963Z,70.3
2017-05-11T04:34:57.542Z,70.39
2017-05-11T04:35:38.143Z,70.36
2017-05-11T04:36:18.728Z,70.1
2017-05-11T04:36:59.302Z,70.2
2017-05-11T04:37:39.863Z,70.2
2017-05-11T04:38:20.506Z,69.82
2017-05-11T04:39:01.138Z,70.58
2017-05-11T04:39:41.731Z,70.54
2017-05-11T04:40:22.331Z,70.3
2017-05-11T04:41:02.930Z,69.98
2017-05-11T04:41:43.501Z,69.92
2017-05-11T04:42:24.073Z,70.49
2017-05-11T04:43:04.658Z,70.01
2017-05-11T04:43:45.243Z,69.82
2017-05-11T04:44:25.831Z,69.82
2017-05-11T04:45:06.396Z,70.3
2017-05-11T04:45:47.009Z,70.2
2017-05-11T04:46:27.659Z,70.2
2017-05-11T04:48:20.544Z,70.1
2017-05-11T04:50:18.227Z,70.1
2017-05-11T04:50:58.807Z,70.01
2017-05-11T04:51:39.376Z,70.1
2017-05-11T04:52:19.952Z,70.1
2017-05-11T04:53:00.535Z,70.01
2017-05-11T04:53:41.151Z,70.01
2017-05-11T04:54:21.740Z,69.82
2017-05-11T04:55:02.307Z,69.92
2017-05-11T04:55:42.868Z,70.01
2017-05-11T04:56:23.498Z,69.73
2017-05-11T04:57:04.149Z,69.92
2017-05-11T04:57:44.797Z,70.1
2017-05-11T04:58:25.433Z,69.63
2017-05-11T04:59:06.045Z,69.35
2017-05-11T04:59:46.665Z,69.44
2017-05-11T05:00:27.240Z,69.35
2017-05-11T05:01:07.814Z,69.35
2017-05-11T05:01:48.405Z,69.54
2017-05-11T05:02:29.016Z,69.73
2017-05-11T05:03:09.613Z,69.35
2017-05-11T05:03:50.202Z,70.1
2017-05-11T05:04:30.819Z,70.01
2017-05-11T05:05:11.475Z,69.92
2017-05-11T05:05:52.142Z,70.01
2017-05-11T05:06:32.781Z,69.82
2017-05-11T05:07:13.372Z,69.92
2017-05-11T05:07:53.985Z,70.1
2017-05-11T05:08:34.581Z,69.92
2017-05-11T05:09:15.163Z,69.35
2017-05-11T05:09:55.920Z,69.54
2017-05-11T05:10:36.516Z,69.44
2017-05-11T05:11:17.155Z,70.05
2017-05-11T05:11:57.746Z,70.01
2017-05-11T05:12:38.317Z,70.05
2017-05-11T05:13:18.908Z,70.01
2017-05-11T05:13:59.559Z,69.73
2017-05-11T05:14:40.150Z,69.48
2017-05-11T05:15:20.731Z,69.19
2017-05-11T05:16:01.343Z,69.38
2017-05-11T05:16:41.946Z,68.9
2017-05-11T05:17:22.529Z,69.48
2017-05-11T05:18:03.104Z,69.19
2017-05-11T05:18:43.723Z,69.57
2017-05-11T05:19:24.314Z,69.48
2017-05-11T05:20:04.897Z,69.38
2017-05-11T05:20:45.534Z,69.57
2017-05-11T05:21:26.131Z,69.29
2017-05-11T05:22:06.747Z,69.38
2017-05-11T05:22:47.398Z,69.38
2017-05-11T05:23:28.002Z,69
2017-05-11T05:24:08.581Z,69.38
2017-05-11T05:24:49.174Z,69.29
2017-05-11T05:25:29.758Z,68.9
2017-05-11T05:26:10.358Z,68.62
2017-05-11T05:26:50.953Z,68.62
2017-05-11T05:27:31.515Z,68.81
2017-05-11T05:28:12.138Z,69.48
2017-05-11T05:28:52.747Z,68.9
2017-05-11T05:29:33.366Z,69
2017-05-11T05:30:13.969Z,68.71
2017-05-11T05:30:54.566Z,68.81
2017-05-11T05:31:35.154Z,69.29
2017-05-11T05:32:15.789Z,69.29
2017-05-11T05:32:56.371Z,69.1
2017-05-11T05:33:37.020Z,69.19
2017-05-11T05:34:17.635Z,68.81
2017-05-11T05:34:58.248Z,68.81
2017-05-11T05:35:38.833Z,68.81
2017-05-11T05:36:19.415Z,68.71
2017-05-11T05:36:59.986Z,68.71
2017-05-11T05:37:40.594Z,68.71
2017-05-11T05:38:21.327Z,68.84
2017-05-11T05:39:01.908Z,68.65
2017-05-11T05:39:42.504Z,68.75
2017-05-11T05:40:23.139Z,68.56
2017-05-11T05:41:03.723Z,67.7
2017-05-11T05:41:44.313Z,67.7
2017-05-11T05:42:24.888Z,67.03
2017-05-11T05:43:05.548Z,66.85
2017-05-11T05:43:46.181Z,66.37
2017-05-11T05:44:26.749Z,66.18
2017-05-11T05:45:07.408Z,66.5
2017-05-11T05:45:47.999Z,66.21
2017-05-11T05:46:28.591Z,65.83
2017-05-11T05:47:09.200Z,66.02
2017-05-11T05:47:49.807Z,66.11
2017-05-11T05:48:30.389Z,65.73
2017-05-11T05:49:11.064Z,65.16
2017-05-11T05:49:51.611Z,64.5
2017-05-11T05:50:32.216Z,63.96
2017-05-11T05:51:12.840Z,64.15
2017-05-11T05:51:53.450Z,63.39
2017-05-11T05:52:34.016Z,63
2017-05-11T05:53:14.656Z,62.81
2017-05-11T05:53:55.295Z,63.2
2017-05-11T05:54:35.905Z,62.15
2017-05-11T05:55:16.557Z,61.86
2017-05-11T05:55:57.176Z,60.72
2017-05-11T05:56:37.816Z,61
2017-05-11T05:57:18.477Z,60.72
2017-05-11T05:57:59.072Z,60.55
2017-05-11T05:58:39.720Z,60.36
2017-05-11T05:59:20.386Z,60.65
2017-05-11T06:00:01.007Z,61.13
2017-05-11T06:00:41.660Z,60.75
2017-05-11T06:01:22.297Z,60.36
2017-05-11T06:02:02.953Z,59.22
2017-05-11T06:02:43.569Z,59.7
2017-05-11T06:03:24.161Z,59.41
2017-05-11T06:04:04.794Z,58.11
2017-05-11T06:04:45.402Z,58.29
2017-05-11T06:05:26.023Z,57.82
2017-05-11T06:06:06.605Z,57.24
2017-05-11T06:06:47.227Z,57.53
2017-05-11T06:07:27.855Z,57.53
2017-05-11T06:08:08.446Z,57.43
2017-05-11T06:08:49.069Z,57.82
2017-05-11T06:09:29.688Z,58.2
2017-05-11T06:10:10.328Z,58.29
2017-05-11T06:10:50.954Z,57.72
2017-05-11T06:11:31.569Z,57.72
2017-05-11T06:12:12.205Z,57.53
2017-05-11T06:12:52.777Z,56.99
2017-05-11T06:13:33.400Z,55.94
2017-05-11T06:14:14.010Z,55.84
2017-05-11T06:14:54.598Z,55.08
2017-05-11T06:15:35.211Z,54.79
2017-05-11T06:16:15.806Z,54.5
2017-05-11T06:16:56.430Z,54.5
2017-05-11T06:17:37.023Z,54.03
2017-05-11T06:18:17.661Z,54.15
2017-05-11T06:18:58.328Z,53.49
2017-05-11T06:19:38.914Z,53.2
2017-05-11T06:20:19.528Z,52.62
2017-05-11T06:21:00.137Z,51.86
2017-05-11T06:21:40.775Z,52.05
2017-05-11T06:22:21.419Z,52.05
2017-05-11T06:23:02.026Z,52.53
2017-05-11T06:23:42.655Z,51.95
2017-05-11T06:24:23.278Z,52.05
2017-05-11T06:25:03.903Z,51.95
2017-05-11T06:25:44.514Z,52.05
2017-05-11T06:26:25.117Z,51.76
2017-05-11T06:27:05.726Z,51.86
2017-05-11T06:27:46.514Z,51.41
2017-05-11T06:28:27.117Z,51.31
2017-05-11T06:29:07.725Z,51.98
2017-05-11T06:29:48.336Z,52.17
2017-05-11T06:30:28.928Z,51.89
2017-05-11T06:31:09.524Z,51.15
2017-05-11T06:31:50.145Z,50.19
2017-05-11T06:32:30.773Z,49.62
2017-05-11T06:33:11.441Z,49.9
2017-05-11T06:33:52.036Z,49.33
2017-05-11T06:34:32.646Z,49.23
2017-05-11T06:35:13.266Z,48.66
2017-05-11T06:35:53.877Z,48.47
2017-05-11T06:36:34.475Z,48.47
2017-05-11T06:37:15.091Z,49.04
2017-05-11T06:37:55.711Z,49.23
2017-05-11T06:38:36.333Z,48.66
2017-05-11T06:39:16.934Z,47.99
2017-05-11T06:39:57.531Z,47.71
2017-05-11T06:40:38.173Z,47.99
2017-05-11T06:41:18.733Z,47.71
2017-05-11T06:41:59.349Z,48.09
2017-05-11T06:42:40.011Z,48.75
2017-05-11T06:43:20.582Z,48.3
2017-05-11T06:44:01.213Z,47.25
2017-05-11T06:44:41.821Z,47.34
2017-05-11T06:45:22.414Z,46.67
2017-05-11T06:46:03.053Z,46.87
2017-05-11T06:46:43.663Z,47.34
2017-05-11T06:47:24.284Z,47.06
2017-05-11T06:48:04.877Z,47.53
2017-05-11T06:48:45.490Z,47.44
2017-05-11T06:49:26.091Z,47.63
2017-05-11T06:50:06.670Z,47.34
2017-05-11T06:50:47.244Z,47.16
2017-05-11T06:51:27.822Z,47.53
2017-05-11T06:52:08.448Z,46.96
2017-05-11T06:52:49.057Z,47.18
2017-05-11T06:53:29.685Z,46.31
2017-05-11T06:54:10.239Z,46.98
2017-05-11T06:54:50.821Z,46.31
2017-05-11T06:55:31.412Z,46.12
2017-05-11T06:56:12.003Z,45.45
2017-05-11T06:56:52.595Z,46.31
2017-05-11T06:57:33.181Z,46.51
2017-05-11T06:58:13.892Z,46.8
2017-05-11T06:58:54.532Z,47.18
2017-05-11T06:59:35.128Z,46.8
2017-05-11T07:00:15.740Z,46.89
2017-05-11T07:00:56.318Z,47.18
2017-05-11T07:01:36.941Z,47.08
2017-05-11T07:02:17.564Z,46.91
2017-05-11T07:02:58.149Z,46.25
2017-05-11T07:03:38.742Z,45.67
2017-05-11T07:04:19.321Z,45.57
2017-05-11T07:04:59.897Z,45.09
2017-05-11T07:05:40.575Z,44.9
2017-05-11T07:06:21.134Z,43.95
2017-05-11T07:07:01.742Z,44.04
2017-05-11T07:07:42.333Z,43.85
2017-05-11T07:08:22.978Z,43.37
2017-05-11T07:09:03.569Z,43.85
2017-05-11T07:09:44.169Z,44.13
2017-05-11T07:10:24.759Z,44.81
2017-05-11T07:11:05.350Z,44.52
2017-05-11T07:11:45.935Z,45
2017-05-11T07:12:26.533Z,44.54
2017-05-11T07:13:07.151Z,43.59
2017-05-11T07:13:47.780Z,43.39
2017-05-11T07:14:28.384Z,43.68
2017-05-11T07:15:09.003Z,43.68
2017-05-11T07:15:49.626Z,43.1
2017-05-11T07:16:30.162Z,42.72
2017-05-11T07:17:10.751Z,43.1
2017-05-11T07:17:51.363Z,42.24
2017-05-11T07:18:31.950Z,42.53
2017-05-11T07:19:12.541Z,43.1
2017-05-11T07:19:53.127Z,43.1
2017-05-11T07:20:33.741Z,43.01
2017-05-11T07:21:14.339Z,43.3
2017-05-11T07:21:54.954Z,43.39
2017-05-11T07:22:35.527Z,42.72
2017-05-11T07:23:16.112Z,43.3
2017-05-11T07:23:56.712Z,43.2
2017-05-11T07:24:37.282Z,42.24
2017-05-11T07:25:17.870Z,42.24
2017-05-11T07:25:58.493Z,41.86
2017-05-11T07:26:39.077Z,41.77
2017-05-11T07:27:19.715Z,41.67
2017-05-11T07:28:00.280Z,41.48
2017-05-11T07:28:40.869Z,41.09
2017-05-11T07:29:21.456Z,41.17
2017-05-11T07:30:02.039Z,41.07
2017-05-11T07:30:42.627Z,41.07
2017-05-11T07:31:23.248Z,41.74
2017-05-11T07:32:03.841Z,41.55
2017-05-11T07:32:44.415Z,42.13
2017-05-11T07:33:25.010Z,42.22
2017-05-11T07:34:05.595Z,42.13
2017-05-11T07:34:46.196Z,42.51
2017-05-11T07:35:26.811Z,42.72
2017-05-11T07:36:07.437Z,43.1
2017-05-11T07:36:48.023Z,42.53
2017-05-11T07:37:28.655Z,42.34
2017-05-11T07:38:09.242Z,42.34
2017-05-11T07:38:49.859Z,42.24
2017-05-11T07:39:30.450Z,42.14
2017-05-11T07:40:11.111Z,41.86
2017-05-11T07:40:51.669Z,41.09
2017-05-11T07:41:32.246Z,40.54
2017-05-11T07:42:12.838Z,41.21
2017-05-11T07:42:53.440Z,40.73
2017-05-11T07:43:34.063Z,40.64
2017-05-11T07:44:14.678Z,40.73
2017-05-11T07:44:55.275Z,40.54
2017-05-11T07:45:35.886Z,40.54
2017-05-11T07:46:16.474Z,40.35
2017-05-11T07:46:57.060Z,39.97
2017-05-11T07:47:37.642Z,40.06
2017-05-11T07:48:18.251Z,40.64
2017-05-11T07:48:58.850Z,40.42
2017-05-11T07:49:39.571Z,40.9
2017-05-11T07:50:20.149Z,40.9
2017-05-11T07:51:00.747Z,41.67
2017-05-11T07:51:41.386Z,43.03
2017-05-11T07:52:21.976Z,44.09
2017-05-11T07:53:02.560Z,42.94
2017-05-11T07:53:43.140Z,42.27
2017-05-11T07:54:23.731Z,42.84
2017-05-11T07:55:04.336Z,43.8
2017-05-11T07:55:44.932Z,43.41
2017-05-11T07:56:25.536Z,43.9
2017-05-11T07:57:06.127Z,43.34
2017-05-11T07:57:46.792Z,42.29
2017-05-11T07:58:27.406Z,42.19
2017-05-11T07:59:08.010Z,40.56
2017-05-11T07:59:48.612Z,41.33
2017-05-11T08:00:29.216Z,42.19
2017-05-11T08:01:09.816Z,41.04
2017-05-11T08:01:50.419Z,40.56
2017-05-11T08:02:31.037Z,40.75
2017-05-11T08:03:11.645Z,40.94
2017-05-11T08:03:52.272Z,39.98
2017-05-11T08:04:32.844Z,39.79
2017-05-11T08:05:13.446Z,39.98
2017-05-11T08:05:54.033Z,40.17
2017-05-11T08:06:34.683Z,41.06
2017-05-11T08:07:15.278Z,40.75
2017-05-11T08:07:55.881Z,40.77
2017-05-11T08:08:36.488Z,41.16
2017-05-11T08:09:17.064Z,40.48
2017-05-11T08:09:57.637Z,40.67
2017-05-11T08:10:38.279Z,40.58
2017-05-11T08:11:18.845Z,41.16
2017-05-11T08:11:59.445Z,40.96
2017-05-11T08:12:40.086Z,40.2
2017-05-11T08:13:20.714Z,39.04
2017-05-11T08:14:01.319Z,38.66
2017-05-11T08:14:41.908Z,39.23
2017-05-11T08:15:22.556Z,38.66
2017-05-11T08:16:03.156Z,37.8
2017-05-11T08:16:43.784Z,37.89
2017-05-11T08:17:24.601Z,38.85
2017-05-11T08:18:05.241Z,38.76
2017-05-11T08:18:45.867Z,37.89
2017-05-11T08:19:26.482Z,38.28
2017-05-11T08:20:07.096Z,38.28
2017-05-11T08:20:47.698Z,37.6
2017-05-11T08:21:28.289Z,37.7
2017-05-11T08:22:08.870Z,38.95
2017-05-11T08:22:49.500Z,38.56
2017-05-11T08:23:30.094Z,38.47
2017-05-11T08:24:10.712Z,38.37
2017-05-11T08:24:51.318Z,37.89
2017-05-11T08:25:31.897Z,38.56
2017-05-11T08:26:12.512Z,38.66
2017-05-11T08:26:53.106Z,38.76
2017-05-11T08:27:33.731Z,39.43
2017-05-11T08:28:14.373Z,37.99
2017-05-11T08:28:54.967Z,38.37
2017-05-11T08:29:35.570Z,38.47
2017-05-11T08:30:16.200Z,37.8
2017-05-11T08:30:56.789Z,38.37
2017-05-11T08:31:37.376Z,38.56
2017-05-11T08:32:17.959Z,38.76
2017-05-11T08:32:58.534Z,38.85
2017-05-11T08:33:39.127Z,39.23
2017-05-11T08:34:19.736Z,39.53
2017-05-11T08:35:00.345Z,39.14
2017-05-11T08:35:40.956Z,38.47
2017-05-11T08:36:22.536Z,38.78
2017-05-11T08:37:03.456Z,38.78
2017-05-11T08:37:44.034Z,38.96
2017-05-11T08:38:24.623Z,38.96
2017-05-11T08:39:05.233Z,37.24
2017-05-11T08:39:45.827Z,38.68
2017-05-11T08:40:26.437Z,39.35
2017-05-11T08:41:07.056Z,37.72
2017-05-11T08:41:47.648Z,37.32
2017-05-11T08:42:28.248Z,37.8
2017-05-11T08:43:08.850Z,38.66
2017-05-11T08:43:49.446Z,39.53
2017-05-11T08:44:30.062Z,39.14
2017-05-11T08:45:10.650Z,39.23
2017-05-11T08:45:51.253Z,38.66
2017-05-11T08:46:31.849Z,39.14
2017-05-11T08:47:12.438Z,39.72
2017-05-11T08:47:53.026Z,39.91
2017-05-11T08:48:33.602Z,39.33
2017-05-11T08:49:14.977Z,39.72
2017-05-11T08:49:55.602Z,39.04